Time;durP1;ratioP1;P1;durP2;ratioP2;P2;SDS_P1;SDS_P2;PMS_P1;PMS_P2;Temp;Humidity;BMP_temperature;BMP_pressure;BME280_temperature;BME280_humidity;BME280_pressure;Samples;Min_cycle;Max_cycle;Signal;HPM_P1;HPM_P2
2021/11/12 00:04:56;;;;;;;45.30;17.37;;;;;;;;;;6229467;23;20671;-88
2021/11/12 00:14:55;;;;;;;55.47;24.53;;;;;;;;;;6213409;23;20167;-91
2021/11/12 03:05:17;;;;;;;34.03;14.57;;;;;;;;;;6207142;22;20207;31
2021/11/12 03:08:23;;;;;;;32.03;13.20;;;;;;;;;;6107525;23;20182;-89
2021/11/12 03:11:29;;;;;;;34.30;13.77;;;;;;;;;;6092106;23;20178;-89
2021/11/12 03:14:36;;;;;;;34.87;14.57;;;;;;;;;;6092419;23;20157;-92
2021/11/12 03:17:41;;;;;;;34.03;14.33;;;;;;;;;;6090643;23;20241;-91
2021/11/12 03:20:47;;;;;;;31.60;12.87;;;;;;;;;;6090615;23;20174;-91
2021/11/12 03:23:57;;;;;;;32.10;13.57;;;;;;;;;;6090635;23;20238;-89
2021/11/12 03:27:12;;;;;;;33.47;12.90;;;;;;;;;;6091403;23;20507;-88
2021/11/12 03:30:58;;;;;;;28.23;13.00;;;;;;;;;;6095081;23;20173;-91
2021/11/12 04:05:07;;;;;;;28.63;11.03;;;;;;;;;;6091740;23;20305;-90
2021/11/12 04:18:40;;;;;;;27.00;10.53;;;;;;;;;;6113532;23;20565;-93
2021/11/12 05:03:09;;;;;;;31.13;12.30;;;;;;;;;;6092009;23;20249;-91
2021/11/12 05:09:59;;;;;;;25.43;11.10;;;;;;;;;;6137564;23;20166;-90
2021/11/12 05:13:22;;;;;;;34.00;12.47;;;;;;;;;;6139280;23;20173;-88
2021/11/12 05:33:49;;;;;;;38.77;13.10;;;;;;;;;;6137781;23;20181;-90
2021/11/12 05:43:50;;;;;;;32.27;13.03;;;;;;;;;;6062987;23;20260;-91
2021/11/12 05:47:09;;;;;;;36.80;12.83;;;;;;;;;;6140480;23;20181;-90
2021/11/12 05:50:16;;;;;;;39.40;13.63;;;;;;;;;;6140291;23;20613;-89
2021/11/12 05:56:47;;;;;;;34.63;13.27;;;;;;;;;;6141175;23;20221;-90
2021/11/12 05:59:52;;;;;;;34.10;13.23;;;;;;;;;;6139672;23;20173;-89
2021/11/12 06:02:57;;;;;;;26.47;11.07;;;;;;;;;;6135516;23;20288;-89
2021/11/12 06:06:02;;;;;;;28.23;11.47;;;;;;;;;;6137318;23;20781;-89
2021/11/12 06:09:07;;;;;;;30.10;11.83;;;;;;;;;;6140563;23;20213;-90
2021/11/12 06:12:14;;;;;;;32.13;12.00;;;;;;;;;;6137337;23;20180;-90
2021/11/12 06:15:20;;;;;;;29.87;11.37;;;;;;;;;;6138430;23;20176;-90
2021/11/12 06:18:25;;;;;;;30.93;11.73;;;;;;;;;;6136966;23;20236;-90
2021/11/12 06:21:29;;;;;;;29.73;11.17;;;;;;;;;;6139293;23;20170;-91
2021/11/12 06:24:35;;;;;;;30.97;11.07;;;;;;;;;;6139596;23;20193;-90
2021/11/12 06:27:41;;;;;;;32.53;12.03;;;;;;;;;;6137611;23;20217;-90
2021/11/12 06:30:48;;;;;;;39.70;11.20;;;;;;;;;;6141546;23;20216;-90
2021/11/12 06:33:55;;;;;;;23.33;10.10;;;;;;;;;;6136489;23;20165;-90
2021/11/12 06:37:00;;;;;;;23.03;9.30;;;;;;;;;;6139827;23;20186;-90
2021/11/12 06:40:06;;;;;;;22.70;9.00;;;;;;;;;;6138105;23;20169;-89
2021/11/12 06:43:23;;;;;;;27.77;9.90;;;;;;;;;;6140043;23;20344;-89
2021/11/12 06:49:55;;;;;;;22.30;9.10;;;;;;;;;;6138022;23;20169;-91
2021/11/12 06:53:01;;;;;;;33.33;10.40;;;;;;;;;;6137170;23;20217;-90
2021/11/12 06:56:19;;;;;;;26.57;9.67;;;;;;;;;;6138623;23;20169;-89
2021/11/12 06:59:26;;;;;;;24.17;10.23;;;;;;;;;;6153480;23;20266;-90
2021/11/12 07:02:31;;;;;;;23.83;9.93;;;;;;;;;;6137159;23;20165;-89
2021/11/12 07:05:36;;;;;;;24.53;9.23;;;;;;;;;;6138118;23;20217;-90
2021/11/12 07:08:42;;;;;;;28.20;10.50;;;;;;;;;;6139492;23;20256;-89
2021/11/12 07:11:47;;;;;;;25.17;9.67;;;;;;;;;;6140724;23;20181;-91
2021/11/12 07:14:56;;;;;;;24.53;10.23;;;;;;;;;;6141022;23;20169;-90
2021/11/12 07:18:01;;;;;;;22.40;9.87;;;;;;;;;;6141045;23;20170;-90
2021/11/12 07:21:08;;;;;;;26.87;11.30;;;;;;;;;;6142465;23;20152;-89
2021/11/12 07:24:13;;;;;;;21.13;9.00;;;;;;;;;;6139788;23;20172;-90
2021/11/12 07:27:18;;;;;;;20.00;9.50;;;;;;;;;;6156514;23;20173;-91
2021/11/12 07:30:25;;;;;;;22.83;10.37;;;;;;;;;;6139322;23;20216;-88
2021/11/12 07:33:48;;;;;;;23.90;9.70;;;;;;;;;;6139645;23;20238;-89
2021/11/12 07:36:55;;;;;;;22.50;9.40;;;;;;;;;;6140272;23;20193;-87
2021/11/12 07:40:03;;;;;;;19.40;8.80;;;;;;;;;;6139975;23;20206;-91
2021/11/12 07:44:03;;;;;;;19.53;9.13;;;;;;;;;;6155476;23;20197;-90
2021/11/12 07:46:58;;;;;;;19.37;8.07;;;;;;;;;;6139410;23;20160;-91
2021/11/12 07:50:06;;;;;;;21.50;9.33;;;;;;;;;;6138529;23;20186;-91
2021/11/12 07:53:11;;;;;;;24.17;9.43;;;;;;;;;;6158128;23;20168;-89
2021/11/12 07:56:17;;;;;;;24.47;9.33;;;;;;;;;;6141471;23;20169;-89
2021/11/12 07:59:22;;;;;;;26.57;9.30;;;;;;;;;;6140880;23;20168;-89
2021/11/12 08:02:30;;;;;;;21.97;8.20;;;;;;;;;;6139369;23;20237;-89
2021/11/12 08:05:38;;;;;;;16.10;7.13;;;;;;;;;;6140938;23;20204;-91
2021/11/12 08:08:52;;;;;;;20.97;8.80;;;;;;;;;;6157699;23;20213;-90
2021/11/12 08:12:03;;;;;;;17.00;7.90;;;;;;;;;;6140841;23;20214;-91
2021/11/12 08:15:27;;;;;;;17.60;6.90;;;;;;;;;;6139972;23;20250;-90
2021/11/12 08:18:43;;;;;;;16.73;7.70;;;;;;;;;;6140062;23;20177;-89
2021/11/12 08:21:55;;;;;;;14.03;6.77;;;;;;;;;;6138088;23;20185;-89
2021/11/12 08:25:12;;;;;;;12.07;6.40;;;;;;;;;;6139167;23;20197;-89
2021/11/12 08:28:26;;;;;;;25.57;6.57;;;;;;;;;;6156463;23;20173;-88
2021/11/12 08:31:38;;;;;;;14.20;6.60;;;;;;;;;;6139569;23;20609;-89
2021/11/12 08:34:54;;;;;;;15.97;6.90;;;;;;;;;;6156359;23;20232;-88
2021/11/12 08:38:07;;;;;;;19.60;7.83;;;;;;;;;;6141764;23;20177;-90
2021/11/12 08:41:15;;;;;;;12.80;6.53;;;;;;;;;;6143732;23;20178;-91
2021/11/12 08:44:24;;;;;;;13.23;6.60;;;;;;;;;;6139992;23;20183;-90
2021/11/12 08:47:51;;;;;;;14.27;6.30;;;;;;;;;;6141272;23;20180;-91
2021/11/12 08:50:58;;;;;;;12.93;5.93;;;;;;;;;;6142107;23;20170;-91
2021/11/12 08:54:05;;;;;;;12.37;5.53;;;;;;;;;;6139658;23;20437;-90
2021/11/12 08:57:11;;;;;;;12.90;6.07;;;;;;;;;;6156817;23;20260;-92
2021/11/12 09:00:17;;;;;;;13.60;6.80;;;;;;;;;;6156102;23;20578;-90
2021/11/12 09:03:23;;;;;;;15.50;6.67;;;;;;;;;;6159025;23;20168;-90
2021/11/12 09:06:30;;;;;;;14.87;5.67;;;;;;;;;;6142146;23;20277;-88
2021/11/12 09:09:36;;;;;;;10.90;5.20;;;;;;;;;;6139790;23;20268;-89
2021/11/12 09:12:43;;;;;;;9.93;4.57;;;;;;;;;;6159109;23;20176;-89
2021/11/12 09:15:51;;;;;;;14.10;6.13;;;;;;;;;;6159976;23;20229;-89
